Time;durP1;ratioP1;P1;durP2;ratioP2;P2;SDS_P1;SDS_P2;PMS_P1;PMS_P2;Temp;Humidity;BMP_temperature;BMP_pressure;BME280_temperature;BME280_humidity;BME280_pressure;Samples;Min_cycle;Max_cycle;Signal;HPM_P1;HPM_P2
2022/04/16 00:00:29;;;;;;;8.53;2.55;;;;;;;4.46;78.85;102604.43;1667082;84;21105;-89
2022/04/16 00:03:12;;;;;;;8.53;3.00;;;;;;;4.52;78.81;102619.25;1612074;85;21114;-89
2022/04/16 00:06:10;;;;;;;7.92;3.00;;;;;;;4.51;78.84;102622.66;1654252;85;21120;-88
2022/04/16 00:08:39;;;;;;;9.68;3.90;;;;;;;4.48;78.88;102629.83;1639595;86;21830;-89
2022/04/16 00:11:16;;;;;;;9.93;3.50;;;;;;;4.35;78.96;102615.30;1653034;85;21000;-88
2022/04/16 00:13:46;;;;;;;10.40;3.50;;;;;;;4.43;79.04;102620.75;1651957;85;21112;-88
2022/04/16 00:16:35;;;;;;;11.15;3.65;;;;;;;4.42;78.99;102615.01;1661265;85;21181;-88
2022/04/16 00:19:03;;;;;;;10.45;3.70;;;;;;;4.40;79.04;102624.81;1642934;85;21097;-87
2022/04/16 00:21:36;;;;;;;11.75;3.87;;;;;;;4.37;79.05;102631.07;1646638;85;21725;-88
2022/04/16 00:24:03;;;;;;;7.45;3.10;;;;;;;4.33;79.24;102635.53;1633658;86;21099;-89
2022/04/16 00:26:30;;;;;;;11.18;4.00;;;;;;;4.26;79.16;102638.95;1607428;86;21112;-90
2022/04/16 00:28:59;;;;;;;12.58;4.42;;;;;;;4.20;79.23;102629.71;1641980;87;22463;-90
2022/04/16 00:31:29;;;;;;;11.80;4.35;;;;;;;4.16;79.26;102642.88;1642170;87;21161;-90
2022/04/16 00:33:58;;;;;;;12.18;4.78;;;;;;;4.12;79.31;102637.31;1617482;87;22464;-90
2022/04/16 00:36:27;;;;;;;11.00;3.95;;;;;;;4.08;79.48;102648.78;1671681;81;21066;-89
2022/04/16 00:38:53;;;;;;;15.40;4.80;;;;;;;4.07;79.44;102641.77;1717096;82;21647;-89
2022/04/16 00:41:23;;;;;;;12.05;5.08;;;;;;;4.04;79.41;102637.59;1728498;81;21141;-90
2022/04/16 00:43:53;;;;;;;10.80;3.75;;;;;;;4.01;79.54;102648.16;1696033;83;21578;-89
2022/04/16 00:46:24;;;;;;;13.55;4.45;;;;;;;3.99;79.54;102649.33;1740896;81;22617;-89
2022/04/16 00:48:49;;;;;;;15.58;3.92;;;;;;;3.99;79.58;102653.64;1722810;81;21126;-91
2022/04/16 00:51:16;;;;;;;11.97;5.17;;;;;;;3.93;79.55;102660.56;1736312;82;21071;-87
2022/04/16 00:53:43;;;;;;;8.60;3.52;;;;;;;3.87;79.62;102654.45;1742209;82;21074;-91
2022/04/16 00:56:12;;;;;;;12.30;3.47;;;;;;;3.81;79.61;102664.37;1719870;82;21459;-90
2022/04/16 00:58:42;;;;;;;9.08;3.17;;;;;;;3.75;79.62;102660.33;1725011;82;23102;-90
2022/04/16 01:01:09;;;;;;;12.00;3.65;;;;;;;3.67;79.70;102657.99;1702743;82;21081;-91
2022/04/16 01:03:36;;;;;;;10.80;3.20;;;;;;;3.59;79.70;102664.27;1703251;82;21062;-91
2022/04/16 01:06:07;;;;;;;10.53;4.08;;;;;;;3.54;79.87;102660.75;1696548;82;21113;-89
2022/04/16 01:08:36;;;;;;;9.13;3.12;;;;;;;3.49;79.92;102662.95;1668972;84;21082;-88
2022/04/16 01:11:05;;;;;;;8.48;2.90;;;;;;;3.43;79.98;102660.74;1706682;82;21760;-87
2022/04/16 01:13:51;;;;;;;8.18;3.17;;;;;;;3.39;80.08;102667.78;1719911;81;21073;-86
2022/04/16 01:16:16;;;;;;;8.20;3.02;;;;;;;3.37;80.58;102673.65;1679617;83;21151;-89
2022/04/16 01:18:46;;;;;;;9.68;3.35;;;;;;;3.32;80.29;102674.54;1689315;82;21775;-88
2022/04/16 01:21:15;;;;;;;11.90;3.35;;;;;;;3.28;80.33;102673.41;1678386;82;21540;-88
2022/04/16 01:23:43;;;;;;;11.38;3.77;;;;;;;3.25;80.29;102681.33;1695309;82;21808;-88
2022/04/16 01:26:10;;;;;;;14.35;4.30;;;;;;;3.23;80.53;102673.75;1696019;82;21770;-91
2022/04/16 01:28:37;;;;;;;9.30;4.17;;;;;;;3.20;80.50;102679.62;1677704;84;21136;-90
2022/04/16 01:31:04;;;;;;;11.83;3.50;;;;;;;3.19;80.74;102681.72;1689217;82;22068;-89
2022/04/16 01:33:31;;;;;;;14.07;3.67;;;;;;;3.16;80.76;102683.14;1665559;84;21069;-90
2022/04/16 01:35:58;;;;;;;10.30;3.80;;;;;;;3.13;80.88;102683.77;1654268;84;21768;-88
2022/04/16 01:38:28;;;;;;;14.95;4.42;;;;;;;3.10;80.86;102688.73;1683696;82;21072;-89
2022/04/16 01:40:57;;;;;;;12.33;4.00;;;;;;;3.08;81.05;102682.09;1688887;84;21107;-91
2022/04/16 01:43:24;;;;;;;6.53;3.25;;;;;;;3.06;81.18;102682.72;1657744;84;21644;-90
2022/04/16 01:45:52;;;;;;;7.80;2.75;;;;;;;3.05;81.21;102686.11;1683907;83;22323;-89
2022/04/16 01:48:19;;;;;;;7.58;2.77;;;;;;;3.05;81.44;102682.21;1677733;85;22530;-90
2022/04/16 01:50:51;;;;;;;9.05;3.02;;;;;;;3.04;81.60;102683.91;1694768;82;21521;-90
2022/04/16 01:53:18;;;;;;;6.65;2.90;;;;;;;3.03;81.33;102683.77;1687339;84;21096;-90
2022/04/16 01:55:48;;;;;;;9.63;3.20;;;;;;;3.00;81.55;102682.20;1686942;82;21152;-90
2022/04/16 01:58:14;;;;;;;13.58;4.12;;;;;;;2.97;81.42;102689.75;1689654;83;21144;-90
2022/04/16 02:00:41;;;;;;;12.78;3.70;;;;;;;2.97;81.58;102688.45;1694750;82;22741;-89
2022/04/16 02:03:08;;;;;;;7.55;3.60;;;;;;;2.95;81.46;102706.89;1712016;81;21073;-89
2022/04/16 02:05:35;;;;;;;15.48;4.25;;;;;;;2.94;81.61;102705.08;1727769;81;21110;-89
2022/04/16 02:08:02;;;;;;;8.13;3.35;;;;;;;2.94;81.81;102694.67;1716889;82;21081;-90
2022/04/16 02:10:30;;;;;;;14.15;3.90;;;;;;;2.93;81.86;102698.98;1704251;81;21592;-90
2022/04/16 02:12:57;;;;;;;9.88;3.85;;;;;;;2.92;81.84;102701.95;1725231;82;22600;-89
2022/04/16 02:15:24;;;;;;;6.78;3.02;;;;;;;2.92;81.97;102705.84;1723539;81;21086;-90
2022/04/16 02:17:50;;;;;;;11.60;3.90;;;;;;;2.91;82.18;102707.95;1718402;81;21091;-91
2022/04/16 02:20:20;;;;;;;8.53;3.40;;;;;;;2.90;82.27;102716.51;1719596;82;21125;-90
2022/04/16 02:22:49;;;;;;;13.15;3.60;;;;;;;2.90;82.01;102716.51;1718886;82;21068;-90
2022/04/16 02:25:17;;;;;;;13.18;4.25;;;;;;;2.88;81.99;102711.56;1694727;82;21759;-92
2022/04/16 02:27:43;;;;;;;12.82;3.85;;;;;;;2.89;82.00;102714.70;1682365;83;21071;-92
2022/04/16 02:30:14;;;;;;;11.97;4.55;;;;;;;2.89;82.03;102720.27;1685835;83;21078;-90
2022/04/16 02:32:43;;;;;;;10.45;4.37;;;;;;;2.88;82.09;102723.67;1688676;82;21569;-90
2022/04/16 02:35:11;;;;;;;13.50;4.33;;;;;;;2.89;81.97;102720.27;1693266;82;21086;-92
2022/04/16 02:37:38;;;;;;;14.10;4.37;;;;;;;2.87;82.04;102722.77;1690966;81;21766;-92
2022/04/16 02:40:09;;;;;;;12.47;4.67;;;;;;;2.85;81.98;102722.09;1701341;82;21100;-92
2022/04/16 02:42:42;;;;;;;12.03;4.87;;;;;;;2.83;82.08;102724.95;1694754;81;21611;-92
2022/04/16 02:47:56;;;;;;;10.70;4.65;;;;;;;2.80;82.15;102736.00;1682546;82;21087;-91
2022/04/16 02:50:25;;;;;;;12.53;5.95;;;;;;;2.80;82.21;102741.20;1679993;82;21750;-92
2022/04/16 02:52:54;;;;;;;9.38;5.03;;;;;;;2.79;82.32;102736.77;1690163;81;21630;-92
2022/04/16 02:55:22;;;;;;;10.08;4.90;;;;;;;2.78;82.27;102742.77;1695730;82;21094;-92
2022/04/16 02:57:52;;;;;;;14.68;5.10;;;;;;;2.78;82.49;102736.26;1692577;82;21089;-91
2022/04/16 03:00:20;;;;;;;13.13;4.62;;;;;;;2.77;82.62;102736.12;1688769;83;21085;-90
2022/04/16 03:02:50;;;;;;;13.22;4.45;;;;;;;2.77;82.53;102736.12;1694538;82;21854;-93
2022/04/16 03:05:17;;;;;;;10.25;4.03;;;;;;;2.77;82.54;102747.42;1673767;83;21150;-91
2022/04/16 03:07:44;;;;;;;10.30;3.80;;;;;;;2.78;82.67;102747.02;1666682;84;21132;-91
2022/04/16 03:10:11;;;;;;;14.45;3.40;;;;;;;2.83;82.70;102744.05;1667691;83;21096;-92
2022/04/16 03:12:47;;;;;;;11.22;4.65;;;;;;;2.86;82.89;102744.34;1666043;85;21084;-90
2022/04/16 03:18:03;;;;;;;13.85;3.40;;;;;;;2.93;82.77;102751.00;1689018;81;21133;-88
2022/04/16 03:20:37;;;;;;;13.45;3.60;;;;;;;2.97;82.96;102758.30;1659652;84;21579;-88
2022/04/16 03:22:59;;;;;;;15.13;4.30;;;;;;;3.01;82.85;102764.69;1677939;82;21579;-89
2022/04/16 03:25:30;;;;;;;14.90;4.28;;;;;;;3.05;82.97;102778.48;1688142;82;21119;-93
2022/04/16 03:27:57;;;;;;;8.38;3.50;;;;;;;3.13;82.99;102767.04;1678765;82;21585;-92
2022/04/16 03:30:26;;;;;;;7.83;3.83;;;;;;;3.19;82.93;102774.47;1681172;82;21062;-92
2022/04/16 03:32:53;;;;;;;10.53;3.80;;;;;;;3.21;82.98;102767.70;1688225;82;21149;-91
2022/04/16 03:35:23;;;;;;;15.15;4.83;;;;;;;3.23;82.76;102778.80;1686145;82;21773;-91
2022/04/16 03:37:50;;;;;;;12.93;4.37;;;;;;;3.21;82.64;102780.72;1682354;82;21118;-91
2022/04/16 03:40:17;;;;;;;11.88;5.10;;;;;;;3.19;82.70;102780.97;1673306;84;21796;-92
2022/04/16 03:42:49;;;;;;;11.03;3.83;;;;;;;3.16;82.55;102786.84;1673998;83;21019;-91
2022/04/16 03:45:21;;;;;;;12.68;3.33;;;;;;;3.15;82.64;102783.70;1675864;82;21509;-90
2022/04/16 03:47:48;;;;;;;9.20;3.62;;;;;;;3.16;82.66;102789.84;1678558;84;21131;-91
2022/04/16 03:50:17;;;;;;;12.33;4.37;;;;;;;3.17;82.66;102794.24;1677606;81;21098;-90
2022/04/16 03:52:47;;;;;;;10.45;3.75;;;;;;;3.18;82.71;102791.78;1683004;83;21725;-90
2022/04/16 04:00:46;;;;;;;12.13;4.37;;;;;;;3.27;82.66;102804.70;1692482;83;21055;-89
2022/04/16 04:03:13;;;;;;;10.05;4.28;;;;;;;3.44;83.10;102803.56;1674822;83;21169;-93
2022/04/16 04:05:40;;;;;;;14.58;3.98;;;;;;;3.84;83.72;102776.63;1672448;83;21833;-93
2022/04/16 04:08:12;;;;;;;7.45;4.03;;;;;;;4.50;83.20;102811.60;1677980;83;21703;-92
2022/04/16 04:10:39;;;;;;;14.53;5.37;;;;;;;4.83;82.74;102791.28;1668465;81;21087;-94
2022/04/16 04:13:06;;;;;;;13.85;4.22;;;;;;;5.27;81.83;102816.11;1677695;83;21085;-92
2022/04/16 04:15:33;;;;;;;9.20;3.92;;;;;;;5.30;80.69;102807.23;1693541;82;21062;-92
2022/04/16 04:18:03;;;;;;;11.80;4.25;;;;;;;5.70;81.01;102815.58;1687770;82;21753;-93
2022/04/16 04:20:28;;;;;;;13.75;4.78;;;;;;;6.01;80.37;102816.70;1682108;82;21760;-88
2022/04/16 04:22:55;;;;;;;7.62;3.75;;;;;;;6.18;79.51;102814.06;1678001;82;21126;-87
2022/04/16 04:25:22;;;;;;;11.95;4.55;;;;;;;5.93;78.38;102836.05;1679792;82;21118;-91
2022/04/16 04:27:52;;;;;;;9.80;3.10;;;;;;;5.62;78.09;102821.52;1684718;82;21120;-90
2022/04/16 04:30:21;;;;;;;10.80;3.87;;;;;;;5.32;78.06;102825.64;1690656;82;21442;-89
2022/04/16 04:32:56;;;;;;;10.75;3.30;;;;;;;5.17;78.30;102826.22;1688742;82;21095;-91
2022/04/16 04:35:22;;;;;;;9.68;3.22;;;;;;;5.09;78.43;102826.02;1695518;81;21102;-93
2022/04/16 04:37:52;;;;;;;7.28;2.62;;;;;;;5.14;78.66;102832.89;1675451;81;21076;-94
2022/04/16 04:40:19;;;;;;;10.25;3.37;;;;;;;5.11;78.54;102832.27;1688837;82;21612;-91
2022/04/16 04:42:46;;;;;;;14.78;2.98;;;;;;;5.02;78.18;102837.64;1680177;82;21686;-91
2022/04/16 04:45:14;;;;;;;7.30;2.83;;;;;;;4.91;78.05;102833.66;1682697;82;21110;-91
2022/04/16 04:47:59;;;;;;;8.30;2.67;;;;;;;5.25;79.12;102834.67;1661626;84;21094;-91
2022/04/16 04:50:28;;;;;;;10.75;2.72;;;;;;;5.91;79.56;102842.86;1678523;83;21184;-91
2022/04/16 04:52:55;;;;;;;7.95;2.47;;;;;;;7.05;79.81;102832.71;1676237;83;21071;-90
2022/04/16 04:55:21;;;;;;;7.45;2.33;;;;;;;8.19;78.83;102838.09;1691041;82;22924;-87
2022/04/16 04:57:54;;;;;;;11.10;2.55;;;;;;;8.29;76.14;102838.30;1682736;82;21080;-93
2022/04/16 05:00:26;;;;;;;9.68;2.67;;;;;;;8.21;74.51;102840.82;1672120;83;21390;-90
2022/04/16 05:03:01;;;;;;;9.28;2.90;;;;;;;8.78;75.62;102856.47;1686490;83;22134;-88
2022/04/16 05:05:25;;;;;;;7.62;2.72;;;;;;;9.71;75.25;102849.73;1681525;83;21115;-91
2022/04/16 05:07:52;;;;;;;5.22;2.02;;;;;;;10.72;73.53;102847.44;1673671;84;22549;-90
2022/04/16 05:10:19;;;;;;;9.58;1.98;;;;;;;10.85;72.38;102855.25;1677225;83;21171;-92
2022/04/16 05:12:46;;;;;;;5.60;2.17;;;;;;;10.64;70.23;102862.80;1679495;84;21117;-93
2022/04/16 05:15:15;;;;;;;9.78;2.33;;;;;;;10.22;68.55;102866.88;1666398;84;21155;-91
2022/04/16 05:17:43;;;;;;;6.03;2.27;;;;;;;9.89;68.57;102863.09;1687368;82;21021;-89
2022/04/16 05:20:10;;;;;;;8.23;2.50;;;;;;;9.54;67.94;102873.24;1690962;83;21764;-90
2022/04/16 05:22:37;;;;;;;3.65;1.98;;;;;;;8.96;66.56;102887.88;1696690;82;21071;-89
2022/04/16 05:25:05;;;;;;;5.65;2.12;;;;;;;8.44;67.69;102889.23;1686179;84;20964;-93
2022/04/16 05:27:38;;;;;;;7.60;2.42;;;;;;;8.14;67.83;102886.70;1682718;82;21206;-90
2022/04/16 05:30:25;;;;;;;6.97;2.20;;;;;;;7.94;68.25;102887.55;1693434;82;21097;-89
2022/04/16 05:32:45;;;;;;;7.65;2.58;;;;;;;7.76;68.47;102899.36;1694061;82;21787;-91
2022/04/16 05:35:12;;;;;;;5.87;1.95;;;;;;;7.61;68.53;102893.92;1692888;83;22098;-92
2022/04/16 05:37:42;;;;;;;6.15;2.10;;;;;;;7.31;68.46;102869.95;1692757;81;21180;-92
2022/04/16 05:40:13;;;;;;;3.83;1.80;;;;;;;7.28;68.70;102897.27;1686999;83;21111;-90
2022/04/16 05:42:42;;;;;;;5.85;2.20;;;;;;;7.15;68.80;102898.07;1689196;83;21070;-91
2022/04/16 05:45:09;;;;;;;6.50;2.05;;;;;;;7.03;68.72;102905.42;1695102;83;22922;-90
2022/04/16 05:47:37;;;;;;;8.05;2.50;;;;;;;6.73;68.70;102875.75;1683588;83;21252;-90
2022/04/16 05:50:10;;;;;;;8.70;2.65;;;;;;;6.74;68.98;102905.07;1672066;83;21206;-90
2022/04/16 05:52:41;;;;;;;;;;;;;;;6.64;69.13;102916.03;1683363;82;21193;-90
2022/04/16 05:55:09;;;;;;;6.55;2.42;;;;;;;6.48;69.02;102904.41;1662468;83;20752;-94
2022/04/16 05:57:36;;;;;;;5.53;2.40;;;;;;;6.36;69.08;102904.77;1684998;83;22252;-91
2022/04/16 06:00:12;;;;;;;7.00;3.05;;;;;;;6.27;69.36;102902.38;1690598;82;22262;-91
2022/04/16 06:02:34;;;;;;;5.55;2.12;;;;;;;6.23;69.53;102906.45;1696624;82;21718;-92
2022/04/16 06:05:01;;;;;;;9.45;3.02;;;;;;;6.14;69.03;102900.51;1686503;82;21161;-92
2022/04/16 06:07:27;;;;;;;6.00;2.30;;;;;;;6.02;69.39;102900.48;1697372;82;21083;-83
2022/04/16 06:09:54;;;;;;;7.03;2.50;;;;;;;5.96;69.45;102903.89;1690913;82;21807;-92
2022/04/16 06:12:22;;;;;;;8.93;2.60;;;;;;;5.96;69.74;102909.13;1687085;82;21110;-92
2022/04/16 06:14:52;;;;;;;6.30;2.42;;;;;;;5.96;69.41;102908.22;1692889;82;21118;-85
2022/04/16 06:17:19;;;;;;;8.28;2.40;;;;;;;5.92;69.34;102904.42;1687887;82;21178;-92
2022/04/16 06:19:46;;;;;;;4.10;2.30;;;;;;;5.92;69.47;102910.05;1683713;82;21134;-89
2022/04/16 06:22:13;;;;;;;4.53;1.85;;;;;;;5.94;69.41;102903.23;1690665;82;21888;-91
2022/04/16 06:24:43;;;;;;;8.35;2.45;;;;;;;5.95;69.10;102917.77;1680076;82;21754;-91
2022/04/16 06:27:09;;;;;;;8.38;2.40;;;;;;;5.87;68.90;102921.43;1686757;82;22355;-92
2022/04/16 06:29:43;;;;;;;5.42;2.00;;;;;;;5.81;69.18;102920.55;1683483;82;21063;-91
2022/04/16 06:32:08;;;;;;;8.33;2.33;;;;;;;5.78;68.94;102924.63;1684419;82;21100;-93
2022/04/16 06:34:35;;;;;;;5.87;2.30;;;;;;;5.76;69.30;102912.77;1693832;82;22827;-92
2022/04/16 06:37:07;;;;;;;6.97;2.22;;;;;;;5.80;69.09;102919.12;1686597;82;21137;-91
2022/04/16 06:39:39;;;;;;;5.72;2.10;;;;;;;5.84;69.02;102920.80;1683528;82;21117;-91
2022/04/16 06:42:06;;;;;;;7.55;2.20;;;;;;;5.86;68.57;102920.94;1689323;82;21670;-91
2022/04/16 06:44:40;;;;;;;7.42;2.10;;;;;;;5.89;68.62;102921.16;1700627;82;21090;-91
2022/04/16 06:47:09;;;;;;;3.52;2.37;;;;;;;5.93;68.34;102931.09;1705575;82;21870;-91
2022/04/16 06:49:42;;;;;;;5.08;2.02;;;;;;;5.96;68.43;102926.11;1697474;82;21302;-92
2022/04/16 06:52:06;;;;;;;8.98;2.95;;;;;;;6.02;68.41;102929.61;1682039;82;21098;-92
2022/04/16 06:54:44;;;;;;;5.50;2.40;;;;;;;6.06;68.58;102934.69;1723029;81;21144;-91
2022/04/16 06:57:13;;;;;;;8.18;2.95;;;;;;;6.12;68.73;102944.30;1690382;82;21053;-91
2022/04/16 06:59:46;;;;;;;7.20;3.42;;;;;;;6.10;68.19;102943.28;1700972;82;21077;-91
2022/04/16 07:02:21;;;;;;;5.47;3.40;;;;;;;6.09;68.64;102951.93;1697090;82;22264;-91
2022/04/16 07:04:45;;;;;;;4.75;2.37;;;;;;;6.11;68.57;102938.17;1686243;83;21158;-93
2022/04/16 07:07:13;;;;;;;9.25;2.60;;;;;;;6.18;68.47;102942.19;1685309;82;21092;-94
2022/04/16 07:09:40;;;;;;;7.33;2.45;;;;;;;6.23;68.31;102938.20;1698335;83;21119;-92
2022/04/16 07:12:12;;;;;;;9.65;2.70;;;;;;;6.28;68.45;102938.58;1696350;82;21132;-90
2022/04/16 07:14:41;;;;;;;8.43;3.27;;;;;;;6.37;68.87;102940.61;1679048;82;21112;-92
2022/04/16 07:17:13;;;;;;;6.62;2.50;;;;;;;6.48;68.59;102947.98;1694096;82;21163;-89
2022/04/16 07:19:54;;;;;;;9.33;2.80;;;;;;;6.51;68.19;102955.64;1668984;83;28674;-94
2022/04/16 07:22:34;;;;;;;5.65;2.92;;;;;;;6.52;68.32;102952.24;1667455;83;21140;-94
2022/04/16 07:25:26;;;;;;;9.70;2.90;;;;;;;6.57;68.81;102950.00;1676270;82;22253;-93
2022/04/16 07:27:54;;;;;;;6.12;2.40;;;;;;;6.62;68.75;102959.09;1669548;82;22041;-92
2022/04/16 07:30:35;;;;;;;8.13;2.72;;;;;;;6.66;68.80;102966.78;1627328;85;21181;-90
2022/04/16 07:33:14;;;;;;;6.08;2.27;;;;;;;6.67;68.78;102968.61;1623073;86;21116;-89
2022/04/16 07:35:49;;;;;;;9.60;2.77;;;;;;;6.69;69.16;102964.00;1656988;82;21108;-83
2022/04/16 07:38:22;;;;;;;10.93;2.60;;;;;;;6.79;69.12;102970.84;1640659;84;20986;-89
2022/04/16 07:41:02;;;;;;;9.28;2.85;;;;;;;6.78;68.92;102975.58;1691352;83;21082;-93
2022/04/16 07:44:03;;;;;;;7.47;2.52;;;;;;;6.68;68.90;102973.03;1680746;83;21125;-91
2022/04/16 07:46:30;;;;;;;7.10;2.37;;;;;;;6.57;69.06;102961.37;1604039;87;21338;-93
2022/04/16 07:49:08;;;;;;;5.20;2.42;;;;;;;6.46;69.17;102972.71;1608249;87;21123;-90
2022/04/16 07:51:49;;;;;;;7.87;3.25;;;;;;;6.43;69.35;102967.23;1638228;85;21049;-91
2022/04/16 07:54:39;;;;;;;;;;;;;;;;;;;;;
2022/04/16 07:57:22;;;;;;;6.37;2.98;;;;;;;6.54;69.76;102968.06;1636489;85;21110;-91
2022/04/16 07:59:53;;;;;;;7.55;2.98;;;;;;;6.76;70.25;102978.08;1642006;84;21232;-92
2022/04/16 08:02:21;;;;;;;5.45;2.30;;;;;;;7.06;70.24;102977.27;1632946;85;21524;-91
2022/04/16 08:05:09;;;;;;;4.95;2.25;;;;;;;7.27;69.47;102975.73;1661787;83;21060;-91
2022/04/16 08:08:05;;;;;;;8.48;3.70;;;;;;;7.29;69.02;102965.87;1597124;88;21132;-92
2022/04/16 08:10:27;;;;;;;9.55;3.55;;;;;;;7.24;69.02;102967.23;1578223;89;21142;-91
2022/04/16 08:13:31;;;;;;;12.65;7.55;;;;;;;7.20;69.00;102971.73;1632290;84;21772;-91
2022/04/16 08:16:00;;;;;;;10.43;4.25;;;;;;;7.17;69.17;102955.78;1621852;85;21111;-92
2022/04/16 08:21:16;;;;;;;7.45;3.30;;;;;;;7.11;68.67;102962.78;1634829;83;21108;-90
2022/04/16 08:24:12;;;;;;;6.50;2.62;;;;;;;7.06;68.64;102963.23;1653213;84;21728;-92
2022/04/16 08:26:42;;;;;;;10.03;3.92;;;;;;;7.04;68.37;102960.53;1654018;84;21518;-92
2022/04/16 08:29:47;;;;;;;5.08;2.12;;;;;;;7.05;68.21;102976.73;1647419;84;21182;-91
2022/04/16 08:32:08;;;;;;;8.30;4.90;;;;;;;7.06;68.38;102965.48;1634537;85;23196;-92
2022/04/16 08:35:02;;;;;;;;;;;;;;;;;;;;;
2022/04/16 08:37:33;;;;;;;9.60;3.40;;;;;;;7.07;68.74;102959.42;1634121;85;21133;-91
2022/04/16 08:40:22;;;;;;;8.88;4.20;;;;;;;7.11;68.76;102971.05;1624346;84;21189;-91
2022/04/16 08:42:52;;;;;;;7.83;3.12;;;;;;;7.20;68.97;102958.23;1663997;84;21062;-93
2022/04/16 08:45:27;;;;;;;6.95;2.27;;;;;;;7.35;68.75;102971.96;1634432;84;21778;-92
2022/04/16 08:48:03;;;;;;;4.15;2.02;;;;;;;7.32;67.97;102966.48;1660445;84;21822;-92
2022/04/16 08:50:41;;;;;;;6.53;2.27;;;;;;;7.32;67.34;102971.72;1666622;84;21092;-92
2022/04/16 08:53:33;;;;;;;5.10;1.50;;;;;;;7.29;66.95;102972.83;1651442;84;21777;-93
2022/04/16 08:56:06;;;;;;;6.70;1.62;;;;;;;7.29;66.65;102983.30;1657524;84;21072;-90
2022/04/16 08:58:50;;;;;;;3.90;1.80;;;;;;;7.23;66.26;102989.41;1658707;84;21243;-91
2022/04/16 09:01:26;;;;;;;4.33;1.85;;;;;;;7.13;65.90;102974.31;1659126;84;22111;-92
2022/04/16 09:04:03;;;;;;;8.18;2.17;;;;;;;7.04;65.76;103010.66;1642679;85;21109;-92
2022/04/16 09:06:44;;;;;;;;;;;;;;;;;;;;;
2022/04/16 09:09:23;;;;;;;5.55;2.58;;;;;;;6.73;66.50;102956.89;1701650;82;21067;-92
2022/04/16 09:11:53;;;;;;;6.65;2.33;;;;;;;6.96;66.75;102991.75;1687681;82;21108;-91
2022/04/16 09:14:43;;;;;;;6.03;2.65;;;;;;;7.04;66.82;103002.80;1696607;83;21097;-91
2022/04/16 09:17:31;;;;;;;8.68;2.92;;;;;;;7.15;67.24;102994.98;1697967;82;21081;-91
2022/04/16 09:20:02;;;;;;;5.35;2.02;;;;;;;7.28;67.30;102990.64;1701331;82;21108;-91
2022/04/16 09:22:49;;;;;;;11.75;2.42;;;;;;;7.40;67.32;102993.77;1667519;83;21120;-92
2022/04/16 09:25:22;;;;;;;6.40;2.62;;;;;;;7.59;67.42;102989.48;1677179;83;21121;-91
2022/04/16 09:28:07;;;;;;;7.95;2.60;;;;;;;7.65;67.23;103017.84;1700748;82;22321;-91
2022/04/16 09:30:48;;;;;;;8.28;4.05;;;;;;;7.59;66.83;102999.06;1688630;81;21579;-91
2022/04/16 09:33:11;;;;;;;10.18;3.15;;;;;;;7.66;66.95;103002.65;1700989;82;21134;-93
2022/04/16 09:35:50;;;;;;;13.00;5.62;;;;;;;7.69;67.02;103001.54;1693933;82;21842;-92
2022/04/16 09:38:27;;;;;;;9.40;3.17;;;;;;;7.65;66.94;103007.36;1692770;82;21771;-92
2022/04/16 09:41:11;;;;;;;7.97;2.55;;;;;;;7.59;66.70;103012.17;1690699;82;21634;-90
2022/04/16 09:43:50;;;;;;;8.63;2.33;;;;;;;7.56;66.80;103024.66;1678699;82;25630;-89
2022/04/16 09:46:26;;;;;;;8.63;2.65;;;;;;;7.50;66.66;103001.91;1709808;80;21161;-90
2022/04/16 09:49:15;;;;;;;5.50;2.45;;;;;;;7.67;67.30;103005.77;1679666;82;21594;-91
2022/04/16 09:51:44;;;;;;;7.10;3.15;;;;;;;7.89;67.00;103016.11;1683635;82;21846;-90
2022/04/16 09:55:06;;;;;;;5.35;2.33;;;;;;;7.81;66.55;103004.16;1692578;82;21105;-90
2022/04/16 09:57:52;;;;;;;10.03;2.35;;;;;;;7.81;66.96;103005.47;1683584;82;21114;-89
2022/04/16 10:00:27;;;;;;;7.08;3.22;;;;;;;7.89;66.41;103021.35;1643198;82;21391;-88
2022/04/16 10:03:25;;;;;;;5.42;2.47;;;;;;;7.68;65.96;103043.40;1642337;83;21157;-88
2022/04/16 10:05:52;;;;;;;4.42;1.98;;;;;;;7.54;66.22;103018.77;1532014;84;21147;-85
2022/04/16 10:08:31;;;;;;;7.53;2.50;;;;;;;7.54;66.71;103013.12;1694029;82;21137;-90
2022/04/16 10:11:19;;;;;;;4.83;1.77;;;;;;;7.59;66.79;103018.31;1663169;84;21077;-90
2022/04/16 10:13:45;;;;;;;7.10;2.40;;;;;;;7.53;66.32;103049.31;1668058;83;21079;-90
2022/04/16 10:16:26;;;;;;;5.58;2.25;;;;;;;7.41;66.44;103020.88;1656543;85;21005;-90
2022/04/16 10:18:57;;;;;;;5.72;2.33;;;;;;;7.28;66.19;103023.01;1686754;83;21157;-92
2022/04/16 10:21:33;;;;;;;4.22;2.10;;;;;;;7.17;66.23;103030.05;1676823;83;21162;-90
2022/04/16 10:24:08;;;;;;;8.15;3.00;;;;;;;7.09;66.34;103026.33;1694870;83;21102;-91
2022/04/16 10:26:43;;;;;;;4.00;1.82;;;;;;;7.10;66.71;103030.37;1693803;83;21071;-87
2022/04/16 10:29:09;;;;;;;5.28;2.05;;;;;;;7.07;66.48;103024.00;1676905;83;21174;-89
2022/04/16 10:31:37;;;;;;;6.03;2.17;;;;;;;7.03;66.73;103029.39;1675568;83;21678;-88
2022/04/16 10:34:13;;;;;;;6.10;2.12;;;;;;;7.07;66.58;103029.23;1668153;84;22229;-90
2022/04/16 10:36:56;;;;;;;4.67;1.92;;;;;;;7.06;66.81;103021.78;1664098;83;21093;-89
2022/04/16 10:39:31;;;;;;;7.97;2.37;;;;;;;7.10;66.51;103036.92;1669269;83;21135;-90
2022/04/16 10:42:00;;;;;;;7.33;1.80;;;;;;;7.05;66.61;103026.48;1674128;83;21591;-91
2022/04/16 10:44:28;;;;;;;5.83;1.82;;;;;;;7.07;66.75;103023.59;1675974;83;21680;-90
2022/04/16 10:46:54;;;;;;;4.37;1.55;;;;;;;7.14;66.73;103038.98;1676599;83;21089;-92
2022/04/16 10:49:27;;;;;;;11.25;2.12;;;;;;;7.20;66.42;103030.27;1688314;83;21085;-91
2022/04/16 10:51:55;;;;;;;8.90;2.47;;;;;;;7.15;66.23;103043.44;1686529;85;21596;-89
2022/04/16 10:54:32;;;;;;;6.72;2.00;;;;;;;7.10;66.04;103022.52;1662661;84;21595;-89
2022/04/16 10:56:59;;;;;;;4.35;1.67;;;;;;;7.08;65.69;103033.28;1658886;84;22535;-90
2022/04/16 10:59:44;;;;;;;3.12;1.70;;;;;;;7.04;65.64;103032.55;1660943;85;21010;-90
2022/04/16 11:02:27;;;;;;;6.53;2.42;;;;;;;7.05;65.19;103036.97;1682816;81;21018;-88
2022/04/16 11:05:09;;;;;;;6.85;1.95;;;;;;;7.09;65.43;103025.02;1686560;82;21083;-89
2022/04/16 11:07:39;;;;;;;5.22;2.15;;;;;;;7.18;65.40;103038.41;1666460;83;21135;-90
2022/04/16 11:10:10;;;;;;;7.22;1.90;;;;;;;7.22;65.12;103030.80;1665223;84;22001;-90
2022/04/16 11:12:38;;;;;;;5.95;2.08;;;;;;;7.24;65.42;103027.48;1692740;82;21085;-89
2022/04/16 11:15:26;;;;;;;6.58;1.90;;;;;;;7.37;65.58;103027.59;1684438;81;21511;-91
2022/04/16 11:18:05;;;;;;;4.25;1.77;;;;;;;7.43;64.92;103019.69;1691462;82;21128;-91
2022/04/16 11:20:34;;;;;;;;;;;;;;;7.44;64.35;103033.31;1654180;82;21161;-90
2022/04/16 11:23:16;;;;;;;4.03;1.92;;;;;;;7.36;63.68;103036.67;1658267;83;20480;-90
2022/04/16 11:34:14;;;;;;;3.47;1.72;;;;;;;7.36;62.96;103031.03;1676485;82;22351;-92
2022/04/16 11:36:41;;;;;;;3.08;1.57;;;;;;;7.40;62.71;103042.25;1714086;82;22576;-90
2022/04/16 11:39:24;;;;;;;3.47;2.00;;;;;;;7.41;62.16;103031.36;1688391;82;21276;-89
2022/04/16 11:41:57;;;;;;;4.25;1.40;;;;;;;7.44;62.09;103036.84;1656884;84;22101;-90
2022/04/16 11:44:45;;;;;;;2.08;1.15;;;;;;;7.47;61.45;103042.69;1686461;83;21185;-90
2022/04/16 11:47:14;;;;;;;2.87;1.50;;;;;;;7.48;61.00;103036.27;1691180;82;21210;-90
2022/04/16 11:49:43;;;;;;;2.50;1.30;;;;;;;7.54;60.73;103036.70;1681680;81;21796;-90
2022/04/16 11:52:10;;;;;;;2.45;1.37;;;;;;;7.58;59.94;103042.72;1695367;82;21139;-90
2022/04/16 11:54:40;;;;;;;1.80;1.32;;;;;;;7.59;59.06;103039.69;1689167;83;21532;-89
2022/04/16 11:57:10;;;;;;;2.65;1.22;;;;;;;7.59;59.50;103032.73;1677122;84;21199;-91
2022/04/16 11:59:41;;;;;;;3.10;1.17;;;;;;;7.65;58.35;103040.53;1709738;82;21086;-91
2022/04/16 12:02:14;;;;;;;1.62;1.17;;;;;;;7.61;58.37;103035.47;1696414;82;21062;-89
2022/04/16 12:04:46;;;;;;;3.92;1.55;;;;;;;7.69;58.52;103027.75;1722415;81;21087;-85
2022/04/16 12:07:17;;;;;;;1.75;0.98;;;;;;;7.74;58.34;103033.35;1723633;81;21360;-89
2022/04/16 12:09:51;;;;;;;3.37;1.40;;;;;;;7.78;57.78;103035.39;1723533;82;21330;-86
2022/04/16 12:12:23;;;;;;;1.37;1.22;;;;;;;7.84;57.71;103024.44;1723296;82;21115;-85
2022/04/16 12:14:54;;;;;;;2.80;1.43;;;;;;;7.88;57.63;103027.41;1723917;82;21734;-86
2022/04/16 12:17:30;;;;;;;1.75;1.15;;;;;;;7.95;57.43;103019.56;1723442;82;21592;-86
2022/04/16 12:20:08;;;;;;;3.02;1.40;;;;;;;7.97;57.41;103022.80;1724015;81;21086;-85